METAR AND TAF INFORMATION
METAR FOR SBCP
ADDS - METARS form results

(0014 UTC 25 March 2019)
Data provider http://aviationweather.gov/metar/data/
 
Forecast for: SBCP (CAMPOS/BARTOLOME, BR)
Text: TAF SBCP 241500Z 2418/2506 13010KT 9999 SCT025 TX30/2418Z TN25/2506Z
Forecast period: 1800 to 2200 UTC 24 March 2019
Forecast type: FROM: standard forecast or significant change
Winds: from the SE (130 degrees) at 12 MPH (10 knots; 5.1 m/s)
Visibility: 6 or more miles 10+ km)
Ceiling: at least 12,000 feet AGL
Clouds: scattered clouds at 2500 feet AGL
Weather: no significant weather forecast for this period
Text: BECMG 2422/2424 20005KT RMK PGU
Forecast period: 2200 UTC 24 March 2019 to 0600 UTC 25 March 2019
Forecast type: BECOMING: Conditions expected to become as follows by 0000 UTC 25 March 2019
Winds: from the SSW (200 degrees) at 6 MPH (5 knots; 2.6 m/s)
Visibility: 6 or more miles 10+ km)
Ceiling: at least 12,000 feet AGL
Clouds: scattered clouds at 2500 feet AGL
Weather: no significant weather forecast for this period

 AIRPORT MAP

 RUNWAY INFORMATION
Runway 7 Runway length 5066 ft Runway width 148 ft
Runway elevation 0 ft Runway displaced threshold 0 ft Runway heading 0
Runway 25 Runway length 5066 ft Runway width 148 ft
Runway elevation 0 ft Runway displaced threshold 0 ft Runway heading 0

 AIRPORT FREQUENCIES
Type AFIS Name CAMPOS RDO Frequency 125.7 MHZ

 AIRPORT NEAR NAVIGATION AIDS
Type NDB Name Campos Frequency 225 KHZ



Powered by Virtual Airlines Manager [v2.6.2]